ADDS TAF Data INFO
IDs: Format: Raw Decoded Include METARs

Data at: 1318 UTC 28 Jul 2015

Region: TOP
KATL 281131Z 2812/2918 33004KT P6SM FEW120 SCT250
  FM281600 32007KT P6SM SCT050
  FM290200 35004KT P6SM SCT120
  FM291500 31006KT P6SM SCT050


KBOS 281122Z 2812/2918 22008KT P6SM SCT006
  TEMPO 2812/2814 P6SM BKN006
  FM281400 VRB03KT P6SM SCT100
  FM281800 10006KT P6SM VCTS BKN050CB
  FM290000 20010KT P6SM SCT050
  FM290800 VRB03KT P6SM SCT060


KBWI 281139Z 2812/2918 00000KT 5SM BR SCT006
  FM281300 00000KT P6SM SKC
  FM281800 10006KT P6SM SCT050
  FM290200 16006KT P6SM FEW050
  FM290800 00000KT P6SM FEW050
  FM291500 VRB03KT P6SM FEW250


KCLE 281121Z 2812/2918 04005KT P6SM SKC
  FM281600 01010KT P6SM SCT250
  FM290100 00000KT P6SM SKC
  FM291500 20004KT P6SM SKC


KCLT 281132Z 2812/2912 18003KT P6SM BKN023 OVC250
  TEMPO 2812/2816 SCT025 BKN035
  FM281600 18003KT P6SM BKN035
  FM281900 16004KT P6SM BKN050
  TEMPO 2819/2823 4SM TSRA BKN030CB
  FM291100 00000KT P6SM BKN019


KCVG 281129Z 2812/2918 12004KT 5SM BR SCT100
  FM281300 12004KT P6SM SCT080
  FM281700 07005KT P6SM VCSH FEW025 BKN040
  FM290000 VRB04KT P6SM FEW040 SCT250
  FM290600 VRB02KT 4SM BR SCT250
  FM291000 VRB02KT 2SM BR SCT250
  FM291300 VRB03KT P6SM BKN250


KDCA 281139Z 2812/2912 00000KT P6SM SKC
  FM281700 VRB04KT P6SM SCT050
  FM290000 13006KT P6SM SCT050
  FM290800 00000KT P6SM FEW050


KDEN 281127Z 2812/2918 12012KT P6SM SKC
  FM282000 11014G23KT P6SM FEW090 SCT150
  FM290500 16008KT P6SM FEW090 BKN120
  FM290900 21009KT P6SM BKN080


KDFW 281125Z 2812/2918 18011KT P6SM FEW060

KDTW 281120Z 2812/2918 11004KT P6SM SCT250
  FM281500 17004KT P6SM BKN250


KEWR 281135Z 2812/2918 25004KT P6SM FEW030 SCT250
  FM281600 22007KT P6SM FEW050 FEW250
  FM282000 16009KT P6SM SCT050
  FM290100 22006KT P6SM FEW050
  FM290500 VRB04KT P6SM FEW050
  FM291700 20009KT P6SM SCT050


KFLL 281132Z 2812/2912 VRB03KT 5SM BR FEW250
  FM281300 23004KT P6SM FEW250
  FM281500 19010KT P6SM SCT035
  FM281800 17012KT P6SM VCSH SCT035 SCT050
  FM290200 23005KT P6SM SCT025 SCT250


KIAD 281139Z 2812/2918 VRB03KT P6SM SKC
  FM281700 VRB04KT P6SM SCT050
  FM291000 00000KT 5SM BR SKC
  FM291200 VRB03KT P6SM SKC


KIAH 281122Z 2812/2918 19004KT P6SM SCT015 SCT250
  FM281500 18006KT P6SM SCT030
  FM282100 15008KT P6SM VCSH SCT060
  FM290200 17005KT P6SM FEW070 SCT150
  FM291100 VRB03KT P6SM FEW015


KJFK 281135Z 2812/2918 24005KT P6SM SCT250
  FM281500 21008KT P6SM FEW050 FEW250
  FM281700 18013KT P6SM SCT050
  FM290100 22007KT P6SM FEW050
  FM290400 VRB04KT P6SM FEW050
  FM291600 18011KT P6SM SCT050


KLAS 281120Z 2812/2912 20006KT P6SM SKC
  FM281500 VRB05KT P6SM SKC
  FM281900 07007KT P6SM SKC
  FM282100 14007KT P6SM SKC
  FM290200 19008KT P6SM SKC


KLAX 281136Z 2812/2918 25007KT P6SM OVC012
  FM281700 26012KT P6SM SKC
  FM290400 VRB03KT P6SM SKC
  FM290900 VRB03KT P6SM OVC008
  FM291600 VRB03KT P6SM SCT010


KLGA 281135Z 2812/2912 25005KT P6SM FEW030 SCT250
  FM281400 04005KT P6SM FEW050 FEW250
  FM282000 18010KT P6SM SCT050
  FM290100 21005KT P6SM FEW050
  FM290400 VRB03KT P6SM FEW050


KMCO 281206Z 2812/2912 19008KT P6SM SCT015 BKN035 OVC200
  TEMPO 2812/2813 -SHRA SCT010 BKN020
  FM281300 20009KT P6SM VCSH BKN025 OVC200
  FM281600 20011KT P6SM VCTS SCT035CB BKN060
  TEMPO 2817/2819 4SM TSRA SCT020CB BKN030 BKN070
  FM282300 24006KT P6SM SCT025 SCT080 BKN250


KMDW 281130Z 2812/2912 12007KT P6SM SCT250
  FM281600 11010KT P6SM SCT050 BKN250
  FM290100 14006KT P6SM SCT120 BKN250
  FM290700 19006KT P6SM BKN050
  PROB30 2908/2912 3SM TSRA OVC050CB


KMEM 281130Z 2812/2912 20005KT P6SM SKC
  FM281500 25007KT P6SM SCT050
  FM290100 20003KT P6SM SKC


KMIA 281132Z 2812/2912 VRB03KT P6SM FEW035 SCT250
  FM281400 19010KT P6SM SCT035
  FM281800 19011G16KT P6SM VCSH SCT035 SCT050
  FM290100 VRB03KT P6SM FEW250


KMSP 281218Z 2812/2918 31015KT 1SM -TSRA BR OVC025CB
  FM281230 15008KT P6SM -SHRA SCT025 OVC035
  FM281900 18017G25KT P6SM VCSH BKN035 OVC050
  PROB30 2821/2824 5SM -TSRA BKN035CB
  FM290100 25010G16KT P6SM BKN060
  FM290600 26010KT P6SM SCT250


KORD 281130Z 2812/2918 12007KT P6SM SCT250
  FM281600 11010KT P6SM SCT050 BKN250
  FM290100 14006KT P6SM SCT120 BKN250
  FM290700 19006KT P6SM BKN050
  PROB30 2908/2914 3SM TSRA OVC050CB
  FM291400 28011KT P6SM FEW050 BKN250


KPDX 281130Z 2812/2912 34005KT P6SM SKC
  FM282200 33012G18KT P6SM SKC
  FM290500 32005KT P6SM SKC


KPHL 281130Z 2812/2918 24004KT 6SM BR BKN006
  TEMPO 2812/2813 SCT006
  FM281300 23004KT P6SM SCT030
  FM281600 23008KT P6SM SCT035
  FM282300 20008KT P6SM SCT040
  FM290200 19004KT P6SM FEW035 SCT250


KPHX 281131Z 2812/2912 29005KT P6SM SCT200
  FM281300 12004KT P6SM SCT200
  FM281900 29008KT P6SM SCT120 SCT200
  FM290600 18010KT P6SM BKN150
  FM290900 13005KT P6SM BKN120


KPIT 281120Z 2812/2918 09005KT P6SM SCT040

KSAN 281120Z 2812/2918 VRB03KT P6SM BKN013
  FM281600 VRB04KT P6SM SCT015
  FM282000 28010KT P6SM SKC
  FM290200 VRB05KT P6SM SCT014
  FM290600 VRB03KT P6SM BKN012
  FM291600 VRB03KT P6SM SCT014 SCT150


KSEA 281300Z 2813/2918 03004KT P6SM SCT240
  FM281800 36008KT P6SM SCT250


KSFO 281120Z 2812/2918 28005KT P6SM SKC
  FM281500 04004KT P6SM SKC
  FM282100 30017G24KT P6SM SKC
  FM290400 28015KT P6SM SKC
  FM290600 29010KT P6SM SKC
  FM290900 29006KT P6SM SKC


KSLC 281125Z 2812/2918 15004KT P6SM SKC
  FM281600 34010KT P6SM SKC
  FM290500 15006KT P6SM SKC


KSTL 281132Z 2812/2918 13004KT P6SM SCT250
  FM281700 17005KT P6SM SCT035
  FM282000 21005KT P6SM VCTS SCT040CB BKN250
  FM290300 14003KT P6SM SCT250
  FM291200 23005KT P6SM BKN250


KTPA 281121Z 2812/2912 25012KT P6SM VCSH SCT010 SCT025 BKN050
  TEMPO 2812/2814 4SM SHRA BKN025
  FM281400 24012KT P6SM VCTS SCT025CB BKN035
  TEMPO 2814/2817 4SM SHRA BKN025
  FM281900 25012KT P6SM VCTS SCT035CB BKN080